• Join FlightAware (Why Join?)
  • Login
  • US Flag 
04:20AM EDT


 

Airport Tracker/Info


-or-


 

Live Flight TrackerFlight Track Log ✈ FLG3861 ✈ 31-Mar-2014 ✈ KDTW - KBGM

Flight Track Log - Related Links

Times and Time Zones

All times are in EDT time to prevent confusion due to time zone crossing. See the FLG3861 flight status page for this flight to view local times or setup timezone preferences in your user account.

Time Position Orientation Groundspeed Altitude Reporting Facility
EDT Latitude Longitude Course Direction KTS MPH feet Rate Location/Type
09:38PM 42.2050 -83.3528 187° South 153 176 1,200  Level Cleveland Center
09:39PM 42.1861 -83.3558 187° South 157 181 2,300 1,920 Climbing Cleveland Center
09:40PM 42.1378 -83.3458 171° South 179 206 4,100 1,860 Climbing Cleveland Center
09:40PM 42.1347 -83.3431 146° Southeast 221 254 4,200 2,280 Climbing Cleveland Center
09:41PM 42.1411 -83.2667 84° East 265 305 6,500 2,580 Climbing Cleveland Center
09:41PM 42.1506 -83.2439 61° Northeast 290 334 7,100 2,820 Climbing Cleveland Center
09:42PM 42.1794 -83.1561 66° East 298 343 9,400 2,040 Climbing Cleveland Center
09:43PM 42.2094 -83.0428 70° East 320 368 11,200 1,860 Climbing Cleveland Center
09:44PM 42.2450 -82.9144 69° East 363 418 13,300 2,100 Climbing Cleveland Center
09:45PM 42.2800 -82.7836 70° East 368 423 15,500 1,800 Climbing Cleveland Center
09:46PM 42.2794 -82.6425 90° East 382 440 17,100 1,260 Climbing Cleveland Center
09:47PM 42.2769 -82.4664 91° East 391 450 18,200 780 Climbing Cleveland Center
09:48PM 42.2753 -82.3064 91° East 421 484 18,700 720 Climbing Cleveland Center
09:49PM 42.2731 -82.1408 91° East 436 502 19,700 900 Climbing Cleveland Center
09:50PM 42.2700 -81.9756 91° East 439 505 20,600 780 Climbing Cleveland Center
09:51PM 42.2675 -81.8047 91° East 446 513 21,400 780 Climbing Cleveland Center
09:52PM 42.2647 -81.6308 91° East 454 522 22,200 780 Climbing Cleveland Center
09:53PM 42.2606 -81.4586 92° East 454 522 23,000 720 Climbing Cleveland Center
09:54PM 42.2569 -81.2856 92° East 455 524 23,700 600 Climbing Cleveland Center
09:55PM 42.2525 -81.1111 92° East 458 527 24,300 540 Climbing Cleveland Center
09:56PM 42.2489 -80.9344 92° East 462 532 24,900 540 Climbing Cleveland Center
09:57PM 42.2444 -80.7586 92° East 463 533 25,500 480 Climbing Cleveland Center
09:58PM 42.2394 -80.5825 92° East 464 534 26,000 480 Climbing Cleveland Center
09:59PM 42.2333 -80.3739 92° East 469 540 26,600 480 Climbing Cleveland Center
10:00PM 42.2283 -80.1956 92° East 470 541 27,000 180 Climbing Cleveland Center
10:01PM 42.2211 -80.0125 93° East 479 551 27,000  Level Cleveland Center
10:02PM 42.2147 -79.8272 93° East 482 555 27,000  Level Cleveland Center
10:03PM 42.2081 -79.6447 93° East 485 558 27,000  Level Cleveland Center
10:04PM 42.2011 -79.4642 93° East 487 560 27,000  Level Cleveland Center
10:05PM 42.1936 -79.2819 93° East 490 564 27,000  Level Cleveland Center
10:06PM 42.1878 -79.0983 92° East 489 563 27,000  Level Cleveland Center
10:07PM 42.1908 -78.9181 89° East 484 557 27,000  Level Cleveland Center
10:08PM 42.1958 -78.7272 88° East 485 558 27,000  Level Cleveland Center
10:09PM 42.1983 -78.5447 89° East 486 559 27,000  Level Cleveland Center
10:10PM 42.2011 -78.3639 89° East 487 560 27,000 -720 Level Cleveland Center
10:11PM 42.2036 -78.1472 89° East 487 560 25,600 -1,620 Descending Cleveland Center
10:12PM 42.2056 -77.9728 89° East 474 545 23,700 -1,860 Descending Cleveland Center
10:13PM 42.2067 -77.8025 89° East 464 534 21,800 -1,860 Descending Cleveland Center
10:14PM 42.2086 -77.6328 89° East 461 531 20,000 -1,800 Descending Cleveland Center
10:15PM 42.2089 -77.4689 90° East 444 511 18,200 -1,500 Descending Cleveland Center
10:16PM 42.2103 -77.3086 89° East 438 504 17,000 -600 Descending Cleveland Center
10:18PM 42.2103 -77.1264 90° East 414 476 17,000 -120 Level Cleveland Center
10:18PM 42.2103 -77.0311 90° East 415 478 16,900 -1,320 Descending New York Center
10:19PM 42.2114 -76.8883 89° East 404 465 14,900 -1,920 Descending New York Center
10:20PM 42.2108 -76.7761 90° East 383 441 13,100 -2,100 Descending New York Center
10:21PM 42.1994 -76.6297 96° East 371 427 10,800 -1,740 Descending New York Center
10:22PM 42.1861 -76.5192 99° East 332 382 9,700 -1,320 Descending New York Center
10:23PM 42.1803 -76.4681 99° East 287 330 8,900 -1,740 Descending Cleveland Center
10:24PM 42.1639 -76.3542 101° East 280 322 7,100 -1,680 Descending Cleveland Center
10:25PM 42.1517 -76.2561 100° East 272 313 5,500 -1,500 Descending Cleveland Center
10:26PM 42.1367 -76.1606 102° East 252 290 4,100 -780 Descending Cleveland Center
10:27PM 42.1264 -76.0819 100° East 243 280 4,000 -180 Descending Cleveland Center
10:28PM 42.1211 -75.9881 94° East 201 231 3,700 -480 Descending New York Center
10:29PM 42.1397 -75.9447 60° Northeast 166 191 2,900 -600 Descending New York Center
10:30PM 42.1686 -75.9469 357° North 91 105 2,500 -480 Descending New York Center
10:31PM 42.1936 -75.9461 North 86 99 2,000 -540 Descending New York Center